Latest Weather Observations for Geraldton Airport

IDW60801

Issued at 7:32 pm WST Sunday 30 August 2015 (issued every 30 minutes, with the page automatically refreshed every 10 minutes)

About weather observations | Map of weather stations | Latest weather observations for WA | Other Formats
Station Details ID: 008315 Name: GERALDTON AIRPORT Lat: -28.80 Lon: 114.70 Height: 29.7 m
Data from the previous 72 hours. | See also: Recent months at Geraldton Airport
Date/Time
WST
Temp
°C
App
Temp
°C
Dew
Point
Rel
Hum
%
Delta-T
°C
Wind Press
QNH
hPa
Press
MSL
hPa
Rain
since 9 am
mm
Dir
 
Spd
km/h
Gust
km/h
Spd
kts
Gust
kts
30/07:30pm 13.2 11.6 11.5 89 0.9 S 11 13 6 7 1021.3 - 0.2
30/07:00pm 14.1 12.8 12.5 90 0.9 S 11 13 6 7 1020.9 - 0.2
30/06:30pm 15.2 13.4 13.2 88 1.1 S 15 24 8 13 1020.8 - 0.2
30/06:00pm 15.3 13.8 11.8 79 1.9 S 11 13 6 7 1020.6 1020.7 0.0
30/05:30pm 16.8 14.9 11.7 72 2.8 S 13 19 7 10 1020.3 - 0.0
30/05:00pm 17.3 14.1 11.8 70 3.0 S 20 28 11 15 1020.0 - 0.0
30/04:30pm 18.6 15.3 11.5 63 3.9 S 20 26 11 14 1019.7 - 0.0
30/04:00pm 19.1 15.4 10.2 56 4.8 SSW 20 26 11 14 1019.8 - 0.0
30/03:30pm 19.4 16.0 10.7 57 4.7 SSW 19 24 10 13 1019.7 - 0.0
30/03:00pm 19.5 16.2 10.9 57 4.7 SSW 19 26 10 14 1019.6 1019.7 0.0
30/02:30pm 19.2 15.7 10.1 55 4.9 SW 19 26 10 14 1019.5 - 0.0
30/02:00pm 19.9 17.6 10.3 54 5.2 S 13 20 7 11 1019.6 - 0.0
30/01:30pm 20.4 17.6 10.0 51 5.6 S 15 22 8 12 1019.6 - 0.0
30/01:00pm 20.1 16.8 9.6 51 5.6 SSW 17 28 9 15 1019.9 - 0.0
30/12:30pm 20.0 17.0 10.7 55 5.1 S 17 26 9 14 1020.1 - 0.0
30/12:00pm 20.3 17.2 11.7 57 4.8 S 19 26 10 14 1020.5 1020.6 0.0
30/11:30am 19.4 15.4 10.6 56 4.8 SSW 22 32 12 17 1020.8 - 0.0
30/11:00am 19.6 15.1 9.9 53 5.2 S 24 33 13 18 1020.9 - 0.0
30/10:30am 19.6 15.3 12.2 62 4.1 SSW 26 32 14 17 1020.9 - 0.0
30/10:00am 19.1 14.9 11.0 59 4.4 SSW 24 32 13 17 1020.7 - 0.0
30/09:30am 18.9 15.3 12.0 64 3.8 S 22 28 12 15 1020.5 - 0.0
30/09:00am 18.2 14.9 11.0 63 3.9 SW 19 26 10 14 1020.4 1020.5 0.2
30/08:30am 17.9 15.1 11.5 66 3.5 SSW 17 20 9 11 1020.0 - 0.2
30/08:00am 16.2 17.4 13.9 86 1.3 CALM 0 4 0 2 1019.6 - 0.2
30/07:30am 15.4 16.2 13.8 90 0.9 ESE 2 7 1 4 1019.2 - 0.2
30/07:00am 15.8 14.7 13.1 84 1.5 S 11 13 6 7 1018.8 - 0.2
30/06:30am 15.3 14.5 12.8 85 1.4 SSW 9 13 5 7 1018.3 - 0.2
30/06:00am 15.3 14.1 12.8 85 1.4 SW 11 17 6 9 1017.7 1017.8 0.2
30/05:30am 15.9 15.0 13.6 86 1.3 SSW 11 15 6 8 1017.5 - 0.2
30/05:00am 15.1 14.0 13.1 88 1.1 SSW 11 13 6 7 1017.1 - 0.2
30/04:30am 16.1 15.7 14.0 87 1.2 SSW 9 13 5 7 1016.8 - 0.2
30/04:00am 16.4 15.0 14.5 88 1.1 SW 15 22 8 12 1016.9 - 0.2
30/03:30am 16.5 15.1 13.5 82 1.7 SW 13 17 7 9 1016.7 - 0.2
30/03:00am 17.1 16.0 14.3 83 1.6 WSW 13 17 7 9 1016.8 1016.8 0.2
30/02:30am 17.8 16.4 14.6 81 1.8 WSW 15 20 8 11 1016.8 - 0.2
30/02:00am 17.6 15.4 14.4 81 1.8 W 19 22 10 12 1016.8 - 0.2
30/01:30am 17.9 15.3 13.7 76 2.4 W 20 28 11 15 1016.8 - 0.2
30/01:00am 16.9 15.2 13.7 81 1.8 W 15 19 8 10 1016.8 - 0.2
30/12:30am 17.5 14.4 14.6 83 1.7 W 24 32 13 17 1016.8 - 0.2
30/12:00am 14.8 14.1 13.2 90 0.9 NW 9 15 5 8 1016.8 1016.8 0.2
 
Date/Time
WST
Temp
°C
App
Temp
°C
Dew
Point
Rel
Hum
%
Delta-T
°C
Wind Press
QNH
hPa
Press
MSL
hPa
Rain
since 9 am
mm
Dir
 
Spd
km/h
Gust
km/h
Spd
kts
Gust
kts
29/11:30pm 15.8 14.6 13.9 88 1.1 WNW 13 13 7 7 1016.7 - 0.2
29/11:00pm 16.0 14.8 14.1 88 1.1 WNW 13 15 7 8 1016.8 - 0.2
29/10:30pm 16.5 16.0 15.0 91 0.9 NNW 11 15 6 8 1016.8 - 0.2
29/10:00pm 16.3 15.5 15.1 93 0.7 N 13 15 7 8 1016.9 - 0.2
29/09:30pm 16.5 15.8 15.3 93 0.7 N 13 19 7 10 1016.8 - 0.2
29/09:00pm 14.8 14.4 14.0 95 0.4 N 9 11 5 6 1016.6 1016.6 0.2
29/08:30pm 15.3 14.2 14.4 94 0.5 NNE 13 15 7 8 1016.4 - 0.2
29/08:00pm 15.2 14.7 13.9 92 0.7 NNW 9 11 5 6 1016.1 - 0.2
29/07:30pm 15.4 15.0 14.2 92 0.7 N 9 11 5 6 1015.9 - 0.2
29/07:00pm 15.4 15.0 14.1 92 0.7 NNW 9 11 5 6 1015.6 - 0.2
29/06:30pm 17.1 17.0 14.9 87 1.3 NW 9 11 5 6 1015.4 - 0.2
29/06:00pm 18.8 17.6 15.0 78 2.2 NW 15 19 8 10 1015.1 1015.1 0.2
29/05:30pm 19.9 17.6 14.2 69 3.3 WNW 19 22 10 12 1015.0 - 0.2
29/05:00pm 20.5 18.2 14.1 66 3.7 WNW 19 26 10 14 1014.7 - 0.2
29/04:30pm 20.9 18.2 13.6 63 4.2 W 20 26 11 14 1014.6 - 0.2
29/04:00pm 21.2 17.6 14.2 64 4.1 W 26 33 14 18 1014.4 - 0.2
29/03:30pm 20.7 16.9 14.8 69 3.5 WNW 28 43 15 23 1014.5 - 0.2
29/03:00pm 22.0 17.5 13.7 59 4.8 NW 30 35 16 19 1014.4 1014.4 0.2
29/02:30pm 22.2 18.1 13.8 59 4.9 WNW 28 39 15 21 1014.3 - 0.2
29/02:00pm 21.9 17.4 13.8 60 4.7 NW 30 41 16 22 1014.3 - 0.2
29/01:30pm 22.0 17.9 13.8 59 4.8 NW 28 39 15 21 1014.5 - 0.2
29/01:00pm 21.6 17.5 13.9 61 4.5 NW 28 37 15 20 1014.7 - 0.2
29/12:30pm 22.0 17.3 14.3 61 4.5 WNW 32 43 17 23 1015.0 - 0.2
29/12:00pm 22.0 18.5 14.5 62 4.4 NW 26 37 14 20 1015.4 1015.4 0.2
29/11:30am 21.7 19.0 14.6 64 4.2 NW 22 35 12 19 1015.8 - 0.0
29/11:00am 21.5 18.6 15.1 67 3.8 NW 24 32 13 17 1016.2 - 0.0
29/10:30am 20.7 16.9 14.7 68 3.5 NW 28 33 15 18 1016.4 - 0.0
29/10:00am 19.2 16.7 14.0 72 3.0 NW 20 28 11 15 1016.3 - 0.0
29/09:30am 18.6 17.1 15.4 81 1.9 NNE 17 24 9 13 1016.1 - 0.0
29/09:00am 16.0 13.6 14.3 90 1.0 NNE 20 24 11 13 1016.1 1016.1 0.0
29/08:30am 14.2 12.1 13.5 96 0.4 NNE 17 26 9 14 1016.0 - 0.0
29/08:22am 13.8 11.0 13.1 96 0.4 NNE 20 26 11 14 1016.0 - 0.0
29/08:00am 13.2 9.9 12.7 97 0.3 NNE 22 26 12 14 1015.9 - 0.0
29/07:30am 11.8 8.5 11.7 99 0.1 NNE 20 26 11 14 1015.6 - 0.0
29/07:00am 11.6 7.8 11.2 97 0.2 NNE 22 28 12 15 1015.4 - 0.0
29/06:30am 11.8 8.4 11.4 97 0.2 NNE 20 26 11 14 1015.1 - 0.0
29/06:15am 11.6 8.4 11.2 97 0.2 NNE 19 24 10 13 1015.0 - 0.0
29/06:00am 11.2 7.6 10.6 96 0.3 NNE 20 24 11 13 1015.0 1015.0 0.0
29/05:30am 10.4 6.7 10.0 97 0.2 NNE 20 24 11 13 1014.7 - 0.0
29/05:00am 10.4 6.8 10.0 97 0.2 NNE 19 24 10 13 1014.5 - 0.0
29/04:30am 10.7 7.2 10.3 97 0.2 NNE 19 24 10 13 1014.6 - 0.0
29/04:00am 10.7 7.3 10.4 98 0.2 NNE 19 22 10 12 1014.5 - 0.0
29/03:30am 10.7 7.6 10.4 98 0.2 NNE 17 22 9 12 1014.5 - 0.0
29/03:00am 10.7 7.6 10.4 98 0.2 NNE 17 20 9 11 1014.5 1014.5 0.0
29/02:43am 10.6 7.5 10.4 99 0.1 NNE 17 20 9 11 1014.5 - 0.0
29/02:30am 11.0 8.0 10.6 97 0.2 NNE 17 20 9 11 1014.6 - 0.0
29/02:24am 11.0 8.0 10.8 99 0.1 N 17 20 9 11 1014.6 - 0.0
29/02:00am 10.8 7.7 10.4 97 0.2 NNE 17 20 9 11 1014.8 - 0.0
29/01:30am 11.5 9.0 11.2 98 0.2 NNE 15 20 8 11 1015.1 - 0.0
29/01:21am 11.6 9.5 11.1 97 0.3 NNE 13 15 7 8 1015.2 - 0.0
29/01:02am 11.7 10.0 11.2 97 0.3 NNE 11 13 6 7 1015.4 - 0.0
29/01:00am 11.5 9.8 11.1 97 0.2 NNE 11 13 6 7 1015.4 - 0.0
29/12:30am 11.9 9.5 11.5 97 0.2 NNE 15 19 8 10 1015.7 - 0.0
29/12:00am 11.7 8.8 11.1 96 0.3 NNE 17 19 9 10 1015.7 1015.7 0.0
 
Date/Time
WST
Temp
°C
App
Temp
°C
Dew
Point
Rel
Hum
%
Delta-T
°C
Wind Press
QNH
hPa
Press
MSL
hPa
Rain
since 9 am
mm
Dir
 
Spd
km/h
Gust
km/h
Spd
kts
Gust
kts
28/11:30pm 12.0 10.0 11.5 97 0.3 NNE 13 15 7 8 1016.1 - 0.0
28/11:00pm 12.1 10.1 11.6 97 0.3 NNE 13 15 7 8 1016.5 - 0.0
28/10:30pm 12.7 10.5 12.2 97 0.3 NNE 15 15 8 8 1016.9 - 0.0
28/10:00pm 12.3 10.8 11.8 97 0.3 N 11 11 6 6 1017.1 - 0.0
28/09:30pm 12.0 10.4 11.5 97 0.3 NNE 11 13 6 7 1016.9 - 0.0
28/09:00pm 12.3 11.1 11.6 95 0.4 NNE 9 11 5 6 1016.8 1016.8 0.0
28/08:30pm 12.3 11.4 11.2 93 0.6 N 7 9 4 5 1016.8 - 0.0
28/08:00pm 12.9 13.4 11.7 92 0.6 CALM 0 0 0 0 1016.6 - 0.0
28/07:30pm 14.0 14.9 12.8 92 0.7 CALM 0 0 0 0 1016.4 - 0.0
28/07:00pm 15.8 17.1 14.0 89 1.0 CALM 0 0 0 0 1016.1 - 0.0
28/06:30pm 17.0 16.6 14.1 83 1.7 WNW 9 9 5 5 1015.7 - 0.0
28/06:00pm 17.9 17.6 14.4 80 2.0 WNW 9 9 5 5 1015.5 1015.5 0.0
28/05:30pm 19.5 18.8 14.4 72 3.0 W 11 15 6 8 1015.3 - 0.0
28/05:00pm 20.1 19.0 14.4 69 3.3 W 13 17 7 9 1015.2 - 0.0
28/04:30pm 20.5 18.9 13.9 66 3.8 W 15 20 8 11 1015.1 - 0.0
28/04:00pm 21.0 19.0 13.9 64 4.1 W 17 20 9 11 1015.0 - 0.0
28/03:30pm 21.2 18.8 13.8 62 4.3 W 19 28 10 15 1015.0 - 0.0
28/03:00pm 21.4 18.8 13.2 59 4.7 W 19 26 10 14 1015.1 1015.1 0.0
28/02:30pm 21.8 19.3 12.2 54 5.4 WSW 17 22 9 12 1015.1 - 0.0
28/02:00pm 21.5 18.7 12.5 56 5.1 WSW 19 24 10 13 1015.2 - 0.0
28/01:30pm 22.1 20.3 13.3 57 5.1 W 15 22 8 12 1015.5 - 0.0
28/01:00pm 21.7 19.0 12.9 57 5.0 WSW 19 24 10 13 1015.8 - 0.0
28/12:30pm 21.0 19.9 13.1 60 4.5 W 11 20 6 11 1016.2 - 0.0
28/12:00pm 22.0 21.6 14.2 61 4.6 N 9 22 5 12 1016.6 1016.6 0.0
28/11:30am 21.1 20.7 14.0 64 4.1 NNE 9 17 5 9 1017.1 - 0.0
28/11:00am 20.2 18.7 14.2 68 3.5 NNE 15 19 8 10 1017.3 - 0.0
28/10:30am 19.4 17.5 14.2 72 3.0 N 17 20 9 11 1017.4 - 0.0
28/10:00am 17.7 15.8 14.1 79 2.1 NNE 17 20 9 11 1017.6 - 0.0
28/09:30am 16.0 13.4 13.2 83 1.6 NNE 19 24 10 13 1017.8 - 0.0
28/09:00am 14.8 11.9 13.0 89 1.0 NNE 20 26 11 14 1017.9 1018.0 0.0
28/08:30am 13.0 10.0 11.9 93 0.6 NNE 19 24 10 13 1017.7 - 0.0
28/08:00am 11.3 7.7 10.4 94 0.5 NNE 20 26 11 14 1017.4 - 0.0
28/07:30am 10.0 6.7 9.4 96 0.3 NNE 17 20 9 11 1017.1 - 0.0
28/07:00am 9.0 5.4 8.4 96 0.3 NNE 17 20 9 11 1016.9 - 0.0
28/06:30am 9.1 5.6 8.7 97 0.2 NNE 17 20 9 11 1016.7 - 0.0
28/06:00am 9.5 5.7 9.1 97 0.2 NNE 19 22 10 12 1016.5 1016.5 0.0
28/05:30am 9.7 5.9 9.2 97 0.2 NNE 19 22 10 12 1016.4 - 0.0
28/05:00am 9.7 6.7 9.1 96 0.3 NNE 15 19 8 10 1016.2 - 0.0
28/04:30am 10.0 7.0 9.4 96 0.3 NNE 15 19 8 10 1016.1 - 0.0
28/04:00am 10.0 6.3 9.6 97 0.2 NNE 19 22 10 12 1016.1 - 0.0
28/03:30am 10.2 7.7 9.6 96 0.3 NNE 13 17 7 9 1016.1 - 0.0
28/03:00am 10.6 8.6 10.2 97 0.2 NNE 11 13 6 7 1016.3 1016.3 0.0
28/02:30am 10.5 8.5 10.1 97 0.2 NNE 11 15 6 8 1016.4 - 0.0
28/02:00am 10.8 8.1 10.2 96 0.3 NNE 15 19 8 10 1016.7 - 0.0
28/01:30am 11.1 8.8 10.6 97 0.3 N 13 15 7 8 1016.9 - 0.0
28/01:00am 11.2 9.0 10.8 97 0.2 N 13 15 7 8 1016.9 - 0.0
28/12:30am 11.5 9.3 10.9 96 0.3 NNE 13 17 7 9 1016.9 - 0.0
28/12:00am 11.3 9.1 10.8 97 0.3 NNE 13 15 7 8 1016.9 1016.9 0.0
 
Date/Time
WST
Temp
°C
App
Temp
°C
Dew
Point
Rel
Hum
%
Delta-T
°C
Wind Press
QNH
hPa
Press
MSL
hPa
Rain
since 9 am
mm
Dir
 
Spd
km/h
Gust
km/h
Spd
kts
Gust
kts
27/11:30pm 11.7 10.0 11.1 96 0.3 NNE 11 15 6 8 1017.0 - 0.0
27/11:00pm 11.5 10.2 11.1 97 0.2 NNE 9 11 5 6 1017.3 - 0.0
27/10:30pm 11.6 10.2 11.0 96 0.3 N 9 11 5 6 1017.3 - 0.0
27/10:00pm 12.2 11.0 11.5 95 0.4 N 9 9 5 5 1017.4 - 0.0
27/09:30pm 13.0 12.3 11.9 93 0.6 NNW 7 9 4 5 1017.5 - 0.0
27/09:00pm 12.6 11.8 11.6 94 0.5 N 7 9 4 5 1017.3 1017.3 0.0
27/08:30pm 13.9 13.0 12.5 91 0.8 NW 9 9 5 5 1017.0 - 0.0
27/08:00pm 14.0 13.5 12.5 91 0.8 NW 7 9 4 5 1016.9 - 0.0

Other Formats:

Comma delimited format used in spreadsheet applications
http://www.bom.gov.au/fwo/IDW60801/IDW60801.94403.axf

JavaScript Object Notation format (JSON) in row-major order
http://www.bom.gov.au/fwo/IDW60801/IDW60801.94403.json